Time;durP1;ratioP1;P1;durP2;ratioP2;P2;SDS_P1;SDS_P2;PMS_P1;PMS_P2;Temp;Humidity;BMP_temperature;BMP_pressure;BME280_temperature;BME280_humidity;BME280_pressure;Samples;Min_cycle;Max_cycle;Signal;HPM_P1;HPM_P2
2023/12/22 00:00:54;;;;;;;2.57;1.30;;;3.10;99.90;2.20;95639;;;;583250;245;24111;-78
2023/12/22 00:03:23;;;;;;;2.40;1.40;;;3.00;99.90;2.10;95642;;;;574435;246;24177;-77
2023/12/22 00:05:50;;;;;;;4.80;1.60;;;3.00;99.90;2.10;95646;;;;583010;245;24097;-78
2023/12/22 00:08:18;;;;;;;5.53;2.17;;;3.00;99.90;2.10;95630;;;;582800;245;24112;-78
2023/12/22 00:10:46;;;;;;;4.40;1.53;;;3.00;99.90;2.10;95621;;;;582400;242;24156;-77
2023/12/22 00:13:14;;;;;;;3.23;1.13;;;2.90;99.90;2.00;95624;;;;582172;243;24090;-78
2023/12/22 00:15:45;;;;;;;4.43;1.20;;;2.90;99.90;2.00;95616;;;;582223;245;24103;-78
2023/12/22 00:18:16;;;;;;;2.10;1.10;;;2.90;99.90;2.00;95609;;;;581921;241;24152;-78
2023/12/22 00:20:41;;;;;;;6.57;1.47;;;2.90;99.90;2.00;95603;;;;582144;246;24088;-78
2023/12/22 00:23:09;;;;;;;3.97;1.23;;;2.90;99.90;2.00;95593;;;;582074;245;24130;-77
2023/12/22 00:25:36;;;;;;;2.33;1.57;;;2.90;99.90;2.00;95605;;;;581950;242;24102;-79
2023/12/22 00:28:04;;;;;;;1.70;1.30;;;2.90;99.90;2.10;95620;;;;582343;242;24091;-77
2023/12/22 00:30:35;;;;;;;7.63;1.60;;;2.90;99.90;2.10;95630;;;;582372;245;24136;-79
2023/12/22 00:33:00;;;;;;;2.33;0.80;;;2.90;99.90;2.10;95640;;;;573254;246;24105;-80
2023/12/22 00:35:28;;;;;;;1.73;0.80;;;2.90;99.90;2.10;95632;;;;582092;246;24095;-79
2023/12/22 00:37:56;;;;;;;3.80;0.90;;;2.90;99.90;2.00;95636;;;;582102;241;24153;-79
2023/12/22 00:40:24;;;;;;;1.70;0.70;;;2.90;99.90;2.00;95626;;;;582103;246;24098;-78
2023/12/22 00:42:52;;;;;;;0.50;0.50;;;2.80;99.90;1.90;95618;;;;581985;246;24090;-78
2023/12/22 00:45:20;;;;;;;1.80;0.60;;;2.80;99.90;1.90;95627;;;;581747;246;24190;-80
2023/12/22 00:47:48;;;;;;;2.50;0.70;;;2.70;99.90;1.90;95629;;;;581690;246;24103;-78
2023/12/22 00:50:16;;;;;;;1.00;0.67;;;2.70;99.90;1.90;95648;;;;581786;246;24095;-77
2023/12/22 00:52:44;;;;;;;0.50;0.50;;;2.70;99.90;1.80;95652;;;;572964;246;24098;-77
2023/12/22 00:55:12;;;;;;;0.93;0.40;;;2.70;99.90;1.80;95642;;;;581606;246;24120;-78
2023/12/22 00:57:40;;;;;;;0.93;0.40;;;2.70;99.90;1.80;95652;;;;582066;246;24115;-78
2023/12/22 01:00:12;;;;;;;1.13;0.40;;;2.70;99.90;1.80;95655;;;;582066;242;24169;-78
2023/12/22 01:02:36;;;;;;;0.43;0.43;;;2.60;99.90;1.70;95662;;;;579510;246;24107;-77
2023/12/22 01:05:06;;;;;;;0.77;0.23;;;2.60;99.90;1.70;95686;;;;582051;246;24100;-79
2023/12/22 01:07:32;;;;;;;1.97;0.57;;;2.60;99.90;1.70;95683;;;;581802;246;24097;-78
2023/12/22 01:10:03;;;;;;;0.30;0.30;;;2.60;99.90;1.60;95674;;;;582602;243;24201;-76
2023/12/22 01:12:28;;;;;;;0.33;0.33;;;2.50;99.90;1.40;95674;;;;582490;246;24146;-77
2023/12/22 01:14:55;;;;;;;0.57;0.30;;;2.40;99.90;1.30;95672;;;;582263;246;24096;-78
2023/12/22 01:17:23;;;;;;;0.30;0.27;;;2.30;99.90;1.30;95677;;;;573206;246;24156;-76
2023/12/22 01:19:51;;;;;;;0.40;0.40;;;2.20;99.90;1.20;95665;;;;573352;246;24181;-78
2023/12/22 01:22:19;;;;;;;0.23;0.20;;;2.10;99.90;1.10;95674;;;;582232;245;24091;-76
2023/12/22 01:24:47;;;;;;;0.30;0.30;;;2.10;99.90;1.20;95677;;;;582103;245;24086;-77
2023/12/22 01:27:18;;;;;;;0.27;0.27;;;2.10;99.90;1.10;95678;;;;582197;245;24151;-77
2023/12/22 01:29:43;;;;;;;0.37;0.30;;;2.00;99.90;1.10;95677;;;;582118;245;24092;-78
2023/12/22 01:32:11;;;;;;;1.07;0.27;;;2.00;99.90;1.10;95675;;;;582361;245;24154;-78
2023/12/22 01:34:40;;;;;;;0.50;0.20;;;2.00;99.90;1.10;95681;;;;582206;242;24086;-77
2023/12/22 01:37:07;;;;;;;0.20;0.20;;;2.00;99.90;1.10;95685;;;;582267;246;24120;-77
2023/12/22 01:39:35;;;;;;;0.30;0.30;;;2.00;99.90;1.10;95686;;;;582273;245;24160;-79
2023/12/22 01:42:06;;;;;;;0.30;0.30;;;2.00;99.90;1.10;95685;;;;582342;246;24117;-76
2023/12/22 01:44:31;;;;;;;0.20;0.20;;;2.10;99.90;1.10;95687;;;;579911;246;24115;-77
2023/12/22 01:47:03;;;;;;;4.90;0.50;;;2.00;99.90;1.10;95683;;;;581616;246;27315;-76
2023/12/22 01:49:29;;;;;;;1.90;0.53;;;2.00;99.90;1.00;95687;;;;581195;246;24130;-77
2023/12/22 01:51:56;;;;;;;0.50;0.23;;;1.90;99.90;1.00;95678;;;;572840;246;24142;-77
2023/12/22 01:54:24;;;;;;;1.83;0.43;;;1.90;99.90;1.00;95668;;;;572673;246;24100;-81
2023/12/22 01:56:56;;;;;;;0.40;0.40;;;1.90;99.90;1.00;95658;;;;581617;246;24091;-75
2023/12/22 01:59:21;;;;;;;0.90;0.37;;;1.90;99.90;1.00;95661;;;;581925;246;24142;-76
2023/12/22 02:01:48;;;;;;;0.30;0.30;;;1.90;99.90;1.00;95660;;;;581989;246;24124;-77
2023/12/22 02:04:19;;;;;;;0.40;0.40;;;1.90;99.90;0.90;95664;;;;582069;242;24099;-75
2023/12/22 02:06:44;;;;;;;0.40;0.40;;;1.80;99.90;0.90;95656;;;;581810;246;24150;-76
2023/12/22 02:09:13;;;;;;;0.40;0.40;;;1.80;99.90;0.80;95647;;;;581933;246;24164;-75
2023/12/22 02:11:41;;;;;;;0.57;0.57;;;1.80;99.90;0.80;95650;;;;581583;246;24123;-76
2023/12/22 02:14:13;;;;;;;0.43;0.43;;;1.70;99.90;0.80;95652;;;;581730;246;26295;-77
2023/12/22 02:16:39;;;;;;;1.80;0.60;;;1.70;99.90;0.80;95658;;;;572844;246;24128;-78
2023/12/22 02:19:20;;;;;;;0.60;0.60;;;1.70;99.90;0.80;95656;;;;572878;246;24143;-82
2023/12/22 02:22:03;;;;;;;0.60;0.60;;;1.70;99.90;0.80;95654;;;;573824;245;24157;-76
2023/12/22 02:24:32;;;;;;;0.60;0.60;;;1.70;99.90;0.80;95644;;;;573475;246;24184;-76
2023/12/22 02:26:56;;;;;;;0.97;0.90;;;1.60;99.90;0.70;95662;;;;581879;246;24125;-78
2023/12/22 02:29:24;;;;;;;0.80;0.80;;;1.60;99.90;0.70;95641;;;;573547;246;24124;-76
2023/12/22 02:31:57;;;;;;;1.03;0.90;;;1.70;99.90;0.70;95653;;;;573309;246;24109;-76
2023/12/22 02:34:21;;;;;;;1.43;1.07;;;1.60;99.90;0.70;95657;;;;572851;246;24116;-79
2023/12/22 02:36:50;;;;;;;1.50;1.30;;;1.70;99.90;0.80;95673;;;;582453;246;24103;-77
2023/12/22 02:39:18;;;;;;;1.27;1.17;;;1.70;99.90;0.80;95668;;;;582390;245;24084;-76
2023/12/22 02:41:49;;;;;;;1.83;1.33;;;1.70;99.90;0.80;95676;;;;573302;246;24113;-77
2023/12/22 02:44:13;;;;;;;2.43;1.40;;;1.70;99.90;0.80;95689;;;;580332;246;24124;-79
2023/12/22 02:46:43;;;;;;;3.08;1.55;;;1.70;99.90;0.80;95689;;;;577686;242;35464;-76
2023/12/22 02:49:13;;;;;;;3.13;0.60;;;2.00;99.90;0.70;95701;;;;582240;245;24155;-75
2023/12/22 02:51:37;;;;;;;2.47;1.70;;;1.70;99.90;0.70;95708;;;;581691;246;24139;-75
2023/12/22 02:54:06;;;;;;;1.80;1.53;;;1.60;99.90;0.60;95718;;;;582057;242;24118;-75
2023/12/22 02:56:34;;;;;;;3.07;1.83;;;1.50;99.90;0.50;95700;;;;581811;245;24200;-75
2023/12/22 02:59:01;;;;;;;2.60;1.87;;;1.50;99.90;0.50;95715;;;;581784;246;24175;-76
2023/12/22 03:01:29;;;;;;;1.83;1.60;;;1.40;99.90;0.40;95696;;;;581984;246;24134;-78
2023/12/22 03:03:57;;;;;;;7.13;1.80;;;1.40;99.90;0.40;95691;;;;582057;242;24166;-75
2023/12/22 03:06:25;;;;;;;2.40;1.63;;;1.40;99.90;0.40;95709;;;;582035;246;24091;-75
2023/12/22 03:08:53;;;;;;;5.13;1.70;;;1.40;99.90;0.40;95710;;;;581950;242;24223;-76
2023/12/22 03:11:21;;;;;;;4.13;1.60;;;1.40;99.90;0.50;95722;;;;582040;246;24090;-75
2023/12/22 03:13:50;;;;;;;3.03;1.93;;;1.50;99.90;0.50;95719;;;;582066;243;24096;-76
2023/12/22 03:16:18;;;;;;;2.23;1.43;;;1.40;99.90;0.40;95725;;;;582016;246;24162;-75
2023/12/22 03:18:45;;;;;;;6.57;1.70;;;1.50;99.90;0.40;95716;;;;581703;246;24160;-76
2023/12/22 03:21:17;;;;;;;3.03;1.50;;;1.40;99.90;0.40;95696;;;;572870;246;24100;-76
2023/12/22 03:23:48;;;;;;;1.30;1.17;;;1.40;99.90;0.30;95708;;;;572571;246;24135;-75
2023/12/22 03:26:16;;;;;;;1.43;1.33;;;1.30;99.90;0.20;95707;;;;581540;246;24153;-76
2023/12/22 03:28:40;;;;;;;1.37;0.87;;;1.20;99.90;0.20;95708;;;;581637;246;24174;-77
2023/12/22 03:31:08;;;;;;;1.00;1.00;;;1.20;99.90;0.20;95726;;;;581669;243;24105;-76
2023/12/22 03:33:37;;;;;;;0.90;0.90;;;1.10;99.90;0.10;95705;;;;583236;242;24143;-77
2023/12/22 03:36:05;;;;;;;0.73;0.73;;;1.10;99.90;0.00;95743;;;;583221;245;24093;-77
2023/12/22 03:38:33;;;;;;;0.93;0.60;;;1.00;99.90;-0.20;95708;;;;582918;245;24198;-78
2023/12/22 03:41:01;;;;;;;0.97;0.70;;;0.90;99.90;-0.30;95740;;;;582930;245;24216;-78
2023/12/22 03:43:31;;;;;;;1.03;0.70;;;0.70;99.90;-0.30;95728;;;;582540;245;24140;-79
2023/12/22 03:45:56;;;;;;;0.60;0.60;;;0.70;99.90;-0.40;95727;;;;582598;246;24084;-76
2023/12/22 03:48:26;;;;;;;1.13;0.90;;;0.70;99.90;-0.40;95721;;;;582656;245;24137;-77
2023/12/22 03:50:54;;;;;;;1.60;0.50;;;0.60;99.90;-0.40;95745;;;;582015;246;24083;-76
2023/12/22 03:53:23;;;;;;;0.60;0.60;;;0.60;99.90;-0.30;95715;;;;581963;242;24126;-77
2023/12/22 03:55:50;;;;;;;1.02;0.90;;;0.70;99.90;-0.30;95732;;;;576814;245;35230;-77
2023/12/22 03:58:18;;;;;;;0.80;0.70;;;0.80;99.90;-0.20;95745;;;;581995;245;24136;-77
2023/12/22 04:00:47;;;;;;;0.80;0.80;;;0.80;99.90;-0.20;95727;;;;581918;245;24162;-77
2023/12/22 04:03:15;;;;;;;1.27;1.17;;;0.90;99.90;-0.10;95737;;;;582336;245;26225;-78
2023/12/22 04:05:43;;;;;;;1.10;1.03;;;0.90;99.90;-0.10;95701;;;;582289;245;24145;-78
2023/12/22 04:08:11;;;;;;;0.80;0.73;;;0.90;99.90;-0.10;95737;;;;573486;246;24109;-77
2023/12/22 04:10:43;;;;;;;0.83;0.63;;;1.00;99.90;0.00;95736;;;;581798;246;25129;-77
2023/12/22 04:13:09;;;;;;;1.60;1.50;;;1.00;99.90;0.00;95727;;;;581635;246;24118;-77
2023/12/22 04:15:37;;;;;;;1.90;1.23;;;1.00;99.90;0.00;95724;;;;581779;243;24246;-80
2023/12/22 04:18:05;;;;;;;3.03;1.30;;;1.00;99.90;0.00;95739;;;;581751;246;24174;-77
2023/12/22 04:20:33;;;;;;;1.30;1.10;;;1.10;99.90;0.00;95746;;;;581657;246;24153;-79
2023/12/22 04:23:01;;;;;;;1.40;1.30;;;1.10;99.90;0.00;95752;;;;581775;246;25147;-78
2023/12/22 04:25:29;;;;;;;2.53;1.43;;;1.10;99.90;0.00;95754;;;;581617;246;24101;-78
2023/12/22 04:27:57;;;;;;;4.47;1.40;;;1.00;99.90;-0.10;95766;;;;581826;246;24102;-77
2023/12/22 04:30:26;;;;;;;1.30;1.10;;;0.90;99.90;-0.30;95776;;;;581703;246;24110;-78
2023/12/22 04:32:53;;;;;;;6.30;1.50;;;0.80;99.90;-0.40;95767;;;;582135;246;24111;-77
2023/12/22 04:35:20;;;;;;;3.93;1.10;;;0.70;99.90;-0.50;95764;;;;582017;246;24107;-82
2023/12/22 04:55:46;;;;;;;0.30;0.30;;;0.40;99.90;-0.60;95744;;;;629025;228;32390;-81
2023/12/22 04:58:17;;;;;;;0.20;0.20;;;0.40;99.90;-0.60;95739;;;;607314;232;24084;-82
2023/12/22 05:00:42;;;;;;;1.00;0.97;;;0.40;99.90;-0.60;95731;;;;606645;232;25052;-82
2023/12/22 05:03:14;;;;;;;1.77;0.83;;;0.40;99.90;-0.60;95734;;;;606950;232;24122;-82
2023/12/22 05:05:38;;;;;;;1.33;1.13;;;0.40;99.90;-0.60;95751;;;;605813;232;24060;-81
2023/12/22 05:08:06;;;;;;;1.53;0.87;;;0.40;99.90;-0.60;95741;;;;606532;232;24047;-82
2023/12/22 05:10:34;;;;;;;3.83;1.33;;;0.40;99.90;-0.60;95744;;;;606324;232;24031;-81
2023/12/22 05:13:02;;;;;;;5.53;1.17;;;0.40;99.90;-0.60;95751;;;;606156;232;24008;-81
2023/12/22 05:15:30;;;;;;;3.00;1.50;;;0.40;99.90;-0.60;95744;;;;606105;232;24130;-82
2023/12/22 05:17:57;;;;;;;2.77;1.37;;;0.40;99.90;-0.60;95737;;;;605903;232;24056;-80
2023/12/22 05:20:25;;;;;;;3.27;1.37;;;0.40;99.90;-0.60;95723;;;;606132;232;24026;-80
2023/12/22 05:22:53;;;;;;;10.27;1.63;;;0.40;99.90;-0.60;95716;;;;606505;232;24059;-80
2023/12/22 05:25:21;;;;;;;6.43;2.27;;;0.40;99.90;-0.60;95749;;;;606465;232;24060;-80
2023/12/22 05:27:49;;;;;;;6.30;1.93;;;0.40;99.90;-0.50;95743;;;;606396;232;24130;-80
2023/12/22 05:30:17;;;;;;;12.53;3.07;;;0.40;99.90;-0.50;95738;;;;606323;232;24013;-79
2023/12/22 05:32:45;;;;;;;16.63;3.07;;;0.50;99.90;-0.50;95735;;;;606176;232;23993;-80
2023/12/22 05:35:13;;;;;;;10.00;2.80;;;0.50;99.90;-0.50;95749;;;;606166;232;23987;-78
2023/12/22 05:37:41;;;;;;;13.50;3.47;;;0.50;99.90;-0.50;95757;;;;605910;232;24052;-79
2023/12/22 05:40:12;;;;;;;16.57;3.63;;;0.50;99.90;-0.50;95759;;;;605793;232;24024;-78
2023/12/22 05:42:37;;;;;;;11.57;3.37;;;0.50;99.90;-0.50;95745;;;;605279;232;24019;-80
2023/12/22 05:45:06;;;;;;;14.90;3.47;;;0.50;99.90;-0.50;95772;;;;605804;232;24044;-79
2023/12/22 05:47:36;;;;;;;12.13;4.00;;;0.50;99.90;-0.50;95755;;;;613858;232;24020;-80
2023/12/22 05:50:01;;;;;;;16.97;4.47;;;0.50;99.90;-0.50;95756;;;;605738;232;24025;-81
2023/12/22 05:52:29;;;;;;;17.97;4.57;;;0.50;99.90;-0.50;95759;;;;605811;232;24045;-79
2023/12/22 05:54:57;;;;;;;21.03;4.63;;;0.50;99.90;-0.50;95767;;;;606201;232;23991;-78
2023/12/22 05:57:28;;;;;;;13.23;4.07;;;0.50;99.90;-0.50;95767;;;;606150;232;24014;-78
2023/12/22 05:59:56;;;;;;;21.77;4.00;;;0.50;99.90;-0.50;95769;;;;606189;232;23993;-79
2023/12/22 06:02:24;;;;;;;20.77;4.47;;;0.50;99.90;-0.50;95784;;;;606013;232;23995;-79
2023/12/22 06:04:52;;;;;;;11.83;3.17;;;0.50;99.90;-0.50;95780;;;;606244;230;24047;-81
2023/12/22 06:07:20;;;;;;;11.20;2.50;;;0.50;99.90;-0.50;95788;;;;607376;232;24019;-82
2023/12/22 06:09:48;;;;;;;14.07;3.17;;;0.50;99.90;-0.50;95797;;;;606796;232;24042;-80
2023/12/22 06:12:15;;;;;;;16.60;3.53;;;0.50;99.90;-0.50;95805;;;;606477;232;24013;-81
2023/12/22 06:14:44;;;;;;;14.57;3.83;;;0.50;99.90;-0.50;95797;;;;606449;232;24012;-80
2023/12/22 06:17:13;;;;;;;6.87;2.93;;;0.60;99.90;-0.50;95802;;;;606206;232;24050;-80
2023/12/22 06:19:44;;;;;;;8.93;2.70;;;0.50;99.90;-0.50;95789;;;;606384;232;24026;-81
2023/12/22 06:22:15;;;;;;;12.27;2.27;;;0.60;99.90;-0.50;95801;;;;606102;232;24084;-82
2023/12/22 06:24:43;;;;;;;11.20;3.10;;;0.60;99.90;-0.50;95802;;;;606250;232;24057;-81
2023/12/22 06:27:07;;;;;;;7.67;2.57;;;0.50;99.90;-0.50;95812;;;;605835;232;24012;-83
2023/12/22 06:29:37;;;;;;;6.73;2.93;;;0.60;99.90;-0.40;95802;;;;606291;232;24026;-82
2023/12/22 06:32:18;;;;;;;;;;;;;;;;;;;;;
2023/12/22 06:34:36;;;;;;;7.83;2.90;;;0.70;99.90;-0.40;95786;;;;611980;232;24058;-83
2023/12/22 06:37:07;;;;;;;6.03;2.17;;;0.70;99.90;-0.30;95826;;;;606358;232;24044;-83
2023/12/22 06:39:32;;;;;;;10.80;2.13;;;0.70;99.90;-0.40;95835;;;;605452;231;24071;-82
2023/12/22 06:42:00;;;;;;;8.87;1.93;;;0.70;99.90;-0.40;95838;;;;615812;232;24027;-84
2023/12/22 06:44:28;;;;;;;10.50;2.93;;;0.70;99.90;-0.40;95820;;;;605845;232;24017;-81
2023/12/22 06:46:55;;;;;;;10.40;1.97;;;0.70;99.90;-0.40;95826;;;;605753;232;24132;-80
2023/12/22 06:49:23;;;;;;;8.17;2.00;;;0.70;99.90;-0.40;95824;;;;606145;232;24030;-81
2023/12/22 06:51:52;;;;;;;13.37;2.10;;;0.60;99.90;-0.40;95830;;;;606087;232;24038;-81
2023/12/22 06:54:20;;;;;;;8.60;2.27;;;0.60;99.90;-0.40;95860;;;;606215;232;24050;-81
2023/12/22 06:56:48;;;;;;;11.43;2.13;;;0.60;99.90;-0.40;95842;;;;605721;232;24009;-85
2023/12/22 06:59:16;;;;;;;7.97;2.03;;;0.60;99.90;-0.40;95842;;;;605686;232;24013;-81
2023/12/22 07:01:44;;;;;;;8.13;2.30;;;0.60;99.90;-0.40;95834;;;;605748;232;24029;-80
2023/12/22 07:04:12;;;;;;;3.20;2.07;;;0.70;99.90;-0.40;95838;;;;605752;232;24041;-80
2023/12/22 07:06:40;;;;;;;7.13;2.03;;;0.70;99.90;-0.40;95829;;;;605751;232;24055;-80
2023/12/22 07:09:20;;;;;;;7.60;2.37;;;0.70;99.90;-0.40;95830;;;;606299;232;24000;-80
2023/12/22 07:11:58;;;;;;;;;;;;;;;;;;;;;
2023/12/22 07:14:19;;;;;;;12.47;2.67;;;0.70;99.90;-0.40;95841;;;;614726;232;23994;-81
2023/12/22 07:16:44;;;;;;;5.13;2.23;;;0.70;99.90;-0.40;95840;;;;606450;230;24046;-81
2023/12/22 07:19:15;;;;;;;7.30;1.70;;;0.70;99.90;-0.40;95831;;;;610785;232;24058;-82
2023/12/22 07:21:43;;;;;;;8.27;1.87;;;0.70;99.90;-0.40;95840;;;;607223;232;24024;-79
2023/12/22 07:24:11;;;;;;;6.27;1.90;;;0.60;99.90;-0.40;95818;;;;607225;232;24100;-80
2023/12/22 07:26:39;;;;;;;8.20;1.63;;;0.60;99.90;-0.40;95816;;;;606491;232;24058;-78
2023/12/22 07:29:07;;;;;;;9.87;1.70;;;0.60;99.90;-0.40;95820;;;;606466;232;24054;-80
2023/12/22 07:31:35;;;;;;;6.03;1.80;;;0.70;99.90;-0.40;95823;;;;606225;232;24046;-83
2023/12/22 07:34:03;;;;;;;7.70;2.00;;;0.70;99.90;-0.30;95839;;;;606440;232;24154;-80
2023/12/22 07:36:30;;;;;;;4.23;1.60;;;0.70;99.90;-0.30;95837;;;;606137;232;24016;-79
2023/12/22 07:39:00;;;;;;;7.53;2.00;;;0.80;99.90;-0.30;95838;;;;600712;232;34756;-81
2023/12/22 07:41:27;;;;;;;1.50;1.30;;;0.70;99.90;-0.30;95826;;;;606388;232;24047;-80
2023/12/22 07:43:55;;;;;;;8.13;2.00;;;0.80;99.90;-0.20;95839;;;;606866;232;24055;-82
2023/12/22 07:46:23;;;;;;;8.00;2.57;;;0.80;99.90;-0.20;95828;;;;606680;232;24056;-82
2023/12/22 07:48:51;;;;;;;4.83;1.93;;;0.80;99.90;-0.20;95831;;;;606444;232;24044;-84
2023/12/22 07:51:19;;;;;;;7.17;2.07;;;0.90;99.90;-0.10;95825;;;;606060;232;23979;-83
2023/12/22 07:53:49;;;;;;;6.57;2.10;;;0.90;99.90;-0.10;95837;;;;605909;232;24088;-83
2023/12/22 07:56:15;;;;;;;6.03;1.77;;;0.90;99.90;-0.10;95828;;;;605829;232;24010;-85
2023/12/22 07:58:43;;;;;;;6.90;2.30;;;0.90;99.90;-0.10;95827;;;;606833;232;24130;-81
2023/12/22 08:01:11;;;;;;;8.00;2.63;;;0.90;99.90;-0.10;95816;;;;606859;232;24072;-84
2023/12/22 08:03:39;;;;;;;6.93;2.30;;;0.90;99.90;-0.10;95808;;;;607229;232;24013;-82
2023/12/22 08:06:07;;;;;;;7.07;2.70;;;0.90;99.90;-0.10;95812;;;;607128;232;24064;-78
2023/12/22 08:08:35;;;;;;;5.97;2.80;;;0.90;99.90;-0.10;95810;;;;607049;232;24012;-84
2023/12/22 08:11:03;;;;;;;5.30;2.30;;;0.90;99.90;0.00;95821;;;;606777;232;24111;-80
2023/12/22 08:13:30;;;;;;;7.13;2.23;;;1.00;99.90;0.00;95811;;;;606618;232;24000;-81
2023/12/22 08:15:58;;;;;;;10.53;2.70;;;1.00;99.90;-0.10;95799;;;;606611;232;24080;-80
2023/12/22 08:18:26;;;;;;;10.13;2.67;;;1.00;99.90;-0.10;95811;;;;606701;232;24007;-82
2023/12/22 08:20:56;;;;;;;6.30;2.17;;;0.90;99.90;-0.10;95805;;;;606693;232;24065;-81
2023/12/22 08:36:18;;;;;;;4.07;1.23;;;0.90;99.90;-0.20;95817;;;;617341;228;32496;-78
2023/12/22 08:38:46;;;;;;;4.87;2.17;;;0.90;99.90;-0.20;95823;;;;606958;236;24052;-80
2023/12/22 08:41:14;;;;;;;6.70;2.40;;;0.80;99.90;-0.20;95828;;;;606791;236;24068;-77
2023/12/22 08:43:42;;;;;;;9.60;2.83;;;0.80;99.90;-0.20;95828;;;;606762;236;24080;-78
2023/12/22 08:46:10;;;;;;;8.43;2.47;;;0.80;99.90;-0.20;95835;;;;606493;237;24044;-77
2023/12/22 08:48:41;;;;;;;5.70;2.30;;;0.80;99.90;-0.20;95818;;;;606756;236;24060;-77
2023/12/22 08:51:06;;;;;;;5.77;2.23;;;0.90;99.90;-0.20;95810;;;;606458;237;24091;-80
2023/12/22 08:53:36;;;;;;;8.40;2.50;;;0.80;99.90;-0.20;95813;;;;606538;236;24069;-78
2023/12/22 08:56:01;;;;;;;6.40;2.20;;;0.80;99.90;-0.20;95824;;;;607005;233;24141;-76
2023/12/22 08:58:29;;;;;;;7.10;2.40;;;0.80;99.90;-0.20;95827;;;;606842;236;24111;-78
2023/12/22 09:00:57;;;;;;;5.53;2.00;;;0.80;99.90;-0.20;95815;;;;606835;236;24038;-76
2023/12/22 09:03:26;;;;;;;8.37;2.50;;;0.80;99.90;-0.20;95817;;;;606796;236;24041;-75
2023/12/22 09:05:53;;;;;;;5.10;2.60;;;0.90;99.90;-0.20;95816;;;;606535;233;24105;-79
2023/12/22 09:08:21;;;;;;;8.80;2.23;;;0.80;99.90;-0.30;95816;;;;605788;233;24098;-78
2023/12/22 09:10:49;;;;;;;4.20;2.00;;;0.80;99.90;-0.40;95820;;;;605540;236;24092;-77
2023/12/22 09:13:16;;;;;;;5.27;2.00;;;0.70;99.90;-0.40;95834;;;;605840;233;24064;-82
2023/12/22 09:15:48;;;;;;;3.73;1.70;;;0.60;99.90;-0.50;95820;;;;605771;236;24085;-77
2023/12/22 09:18:13;;;;;;;5.67;2.10;;;0.60;99.90;-0.50;95828;;;;605590;237;24083;-80
2023/12/22 09:20:40;;;;;;;8.23;2.60;;;0.60;99.90;-0.40;95831;;;;605804;233;24056;-76
2023/12/22 09:23:09;;;;;;;8.65;2.95;;;0.60;99.90;-0.40;95828;;;;600533;236;35114;-78
2023/12/22 09:25:36;;;;;;;3.60;2.27;;;0.70;99.90;-0.30;95821;;;;605750;236;24196;-76
2023/12/22 09:28:04;;;;;;;8.20;2.60;;;0.80;99.90;-0.20;95808;;;;608078;231;24071;-80
2023/12/22 09:30:32;;;;;;;4.80;2.20;;;0.80;99.90;-0.10;95807;;;;608626;234;24035;-76
2023/12/22 09:33:00;;;;;;;3.90;1.90;;;0.90;99.90;-0.10;95800;;;;608489;234;24030;-76
2023/12/22 09:35:28;;;;;;;3.17;1.97;;;0.90;99.90;0.00;95801;;;;608906;234;24109;-78
2023/12/22 09:37:56;;;;;;;7.47;2.37;;;1.00;99.90;0.00;95794;;;;609008;231;24033;-82
2023/12/22 09:40:29;;;;;;;3.13;2.70;;;1.00;99.90;0.00;95802;;;;608956;234;24072;-81
2023/12/22 09:43:01;;;;;;;2.80;2.10;;;1.10;99.90;0.10;95801;;;;608464;235;24069;-79
2023/12/22 09:45:26;;;;;;;2.17;1.53;;;1.10;99.90;0.10;95788;;;;608256;234;24024;-80
2023/12/22 09:47:54;;;;;;;3.07;2.20;;;1.10;99.90;0.20;95799;;;;610313;230;24121;-80
2023/12/22 09:50:22;;;;;;;3.00;1.80;;;1.20;99.90;0.20;95794;;;;609593;235;24025;-81
2023/12/22 09:52:49;;;;;;;4.60;2.37;;;1.20;99.90;0.20;95795;;;;609671;233;24037;-78
2023/12/22 09:55:17;;;;;;;2.37;1.98;;;1.30;99.90;0.20;95798;;;;604443;230;34810;-83
2023/12/22 09:57:45;;;;;;;1.90;1.33;;;1.20;99.90;0.20;95787;;;;609506;233;24065;-79
2023/12/22 10:00:14;;;;;;;2.03;1.80;;;1.30;99.90;0.30;95796;;;;609470;233;24073;-79
2023/12/22 10:02:42;;;;;;;4.57;2.27;;;1.30;99.90;0.30;95798;;;;608923;236;24047;-79
2023/12/22 10:05:10;;;;;;;3.20;1.50;;;1.30;99.90;0.30;95785;;;;608752;234;24034;-78
2023/12/22 10:07:37;;;;;;;3.13;2.00;;;1.30;99.90;0.30;95797;;;;608694;233;24080;-81
2023/12/22 10:10:09;;;;;;;2.13;1.93;;;1.30;99.90;0.30;95785;;;;608588;233;24143;-80
2023/12/22 10:12:33;;;;;;;2.23;1.87;;;1.30;99.90;0.30;95777;;;;608074;236;24011;-84
2023/12/22 10:15:04;;;;;;;1.53;1.30;;;1.30;99.90;0.40;95778;;;;609001;230;24013;-81
2023/12/22 10:17:29;;;;;;;2.73;1.30;;;1.40;99.90;0.40;95775;;;;608490;236;24034;-83
2023/12/22 10:19:57;;;;;;;2.57;1.60;;;1.40;99.90;0.40;95776;;;;609050;233;24034;-79
2023/12/22 10:22:24;;;;;;;2.70;1.67;;;1.50;99.90;0.40;95775;;;;608482;233;24070;-83
2023/12/22 10:24:52;;;;;;;1.83;1.70;;;1.40;99.90;0.50;95775;;;;608476;234;24044;-83
2023/12/22 10:27:24;;;;;;;1.90;1.80;;;1.50;99.90;0.40;95775;;;;608344;234;24049;-79
2023/12/22 10:29:54;;;;;;;1.67;1.57;;;1.40;99.90;0.40;95781;;;;608504;234;24082;-83
2023/12/22 10:32:26;;;;;;;2.20;2.00;;;1.40;99.90;0.40;95784;;;;608298;234;24033;-80
2023/12/22 10:34:56;;;;;;;2.53;1.80;;;1.50;99.90;0.40;95782;;;;608166;236;24058;-78
2023/12/22 10:37:25;;;;;;;2.53;2.07;;;1.50;99.90;0.50;95787;;;;607963;231;24022;-75
2023/12/22 10:39:52;;;;;;;2.30;1.97;;;1.40;99.90;0.60;95780;;;;608317;236;24049;-80
2023/12/22 10:42:23;;;;;;;3.57;2.13;;;1.50;99.90;0.60;95794;;;;608458;234;24027;-80
2023/12/22 10:44:51;;;;;;;3.63;2.50;;;1.60;99.90;0.70;95777;;;;608578;236;24050;-79
2023/12/22 10:47:16;;;;;;;3.43;2.40;;;1.60;99.90;0.70;95790;;;;608596;236;24058;-79
2023/12/22 10:49:44;;;;;;;7.07;3.47;;;1.70;99.90;0.70;95786;;;;608833;234;24028;-80
2023/12/22 10:52:11;;;;;;;4.33;1.97;;;1.70;99.90;0.70;95773;;;;608640;236;24025;-78
2023/12/22 10:54:39;;;;;;;3.40;2.23;;;1.70;99.90;0.70;95778;;;;607879;231;24014;-78
2023/12/22 10:57:07;;;;;;;1.73;1.63;;;1.70;99.90;0.80;95778;;;;608558;231;24069;-78
2023/12/22 10:59:35;;;;;;;3.17;1.97;;;1.80;99.90;0.90;95779;;;;610100;233;24071;-78
2023/12/22 11:02:03;;;;;;;2.47;2.13;;;1.90;99.90;1.00;95783;;;;609418;231;24018;-82
2023/12/22 11:04:34;;;;;;;2.43;1.73;;;2.00;99.90;1.10;95776;;;;609442;233;24001;-79
2023/12/22 11:07:01;;;;;;;3.87;1.60;;;2.10;99.90;1.10;95779;;;;609104;230;24053;-79
2023/12/22 11:09:29;;;;;;;2.47;2.00;;;2.10;99.90;1.10;95782;;;;609035;233;24014;-79
2023/12/22 11:11:57;;;;;;;2.37;2.17;;;2.00;99.90;1.00;95790;;;;608888;236;24076;-82
2023/12/22 11:14:25;;;;;;;2.13;2.03;;;2.00;99.90;1.00;95787;;;;609421;236;24051;-78
2023/12/22 11:16:53;;;;;;;2.60;2.20;;;1.90;99.90;1.00;95791;;;;608824;230;24049;-80
2023/12/22 11:19:20;;;;;;;4.23;2.50;;;1.90;99.90;0.90;95799;;;;608609;234;24021;-78
2023/12/22 11:21:48;;;;;;;3.80;2.00;;;1.90;99.90;0.90;95791;;;;608810;234;25132;-78
2023/12/22 11:24:16;;;;;;;2.77;1.67;;;1.90;99.90;1.00;95794;;;;608627;233;24084;-81
2023/12/22 11:26:44;;;;;;;1.43;1.40;;;2.00;99.90;1.10;95798;;;;608624;232;24033;-81
2023/12/22 11:29:12;;;;;;;1.73;1.60;;;2.00;99.90;1.10;95799;;;;608702;234;24029;-80
2023/12/22 11:31:43;;;;;;;2.33;1.80;;;2.10;99.90;1.10;95799;;;;608842;236;24018;-82
2023/12/22 11:34:11;;;;;;;1.43;1.33;;;2.10;99.90;1.20;95801;;;;608221;231;24061;-81
2023/12/22 11:36:36;;;;;;;2.37;1.83;;;2.10;99.90;1.20;95805;;;;608215;236;24064;-79
2023/12/22 11:39:04;;;;;;;1.40;1.30;;;2.20;99.90;1.30;95806;;;;608596;231;24069;-81
2023/12/22 11:41:31;;;;;;;1.60;1.50;;;2.20;99.90;1.20;95813;;;;608592;230;24032;-79
2023/12/22 11:44:02;;;;;;;1.40;1.30;;;2.20;99.90;1.20;95810;;;;608761;236;24013;-79
2023/12/22 11:46:30;;;;;;;1.30;1.20;;;2.20;99.90;1.20;95819;;;;608491;236;24054;-79
2023/12/22 11:48:55;;;;;;;2.90;1.87;;;2.10;99.90;1.10;95806;;;;608614;236;24039;-80
2023/12/22 11:51:26;;;;;;;3.13;1.73;;;2.10;99.90;1.00;95822;;;;608658;236;23998;-79
2023/12/22 11:53:51;;;;;;;1.37;1.27;;;2.00;99.90;0.90;95819;;;;608507;234;24018;-80
2023/12/22 11:56:20;;;;;;;4.23;1.90;;;1.90;99.90;0.90;95819;;;;608371;231;24058;-78
2023/12/22 11:58:54;;;;;;;2.57;1.50;;;1.90;99.90;0.80;95826;;;;608444;234;24029;-79
2023/12/22 12:01:24;;;;;;;1.53;1.23;;;1.80;99.90;0.80;95823;;;;608274;234;24023;-79
2023/12/22 12:03:53;;;;;;;3.63;1.97;;;1.80;99.90;0.70;95821;;;;607746;236;24100;-78
2023/12/22 12:06:26;;;;;;;3.40;2.07;;;1.70;99.90;0.70;95832;;;;607924;236;24025;-81